sensor_id;sensor_type;location;lat;lon;timestamp;pressure;altitude;pressure_sealevel;temperature;humidity
83815;BME280;73829;53.826;-3.034;2024-03-23T00:51:51;101037.18;;;16.97;57.37
83815;BME280;73829;53.826;-3.034;2024-03-23T00:54:21;101033.86;;;16.97;57.16
83815;BME280;73829;53.826;-3.034;2024-03-23T00:56:52;101035.30;;;16.95;57.10
83815;BME280;73829;53.826;-3.034;2024-03-23T00:59:22;101026.38;;;16.94;57.18
83815;BME280;73829;53.826;-3.034;2024-03-23T01:01:56;101029.41;;;16.93;56.96
83815;BME280;73829;53.826;-3.034;2024-03-23T01:04:42;101025.43;;;16.91;57.24
83815;BME280;73829;53.826;-3.034;2024-03-23T01:07:14;101029.36;;;16.90;57.04
83815;BME280;73829;53.826;-3.034;2024-03-23T01:09:44;101021.84;;;16.88;57.04
83815;BME280;73829;53.826;-3.034;2024-03-23T01:12:15;101019.09;;;16.87;56.99
83815;BME280;73829;53.826;-3.034;2024-03-23T01:14:47;101017.74;;;16.85;56.99
83815;BME280;73829;53.826;-3.034;2024-03-23T01:17:17;101014.46;;;16.83;57.01
83815;BME280;73829;53.826;-3.034;2024-03-23T01:19:48;101001.88;;;16.81;57.00
83815;BME280;73829;53.826;-3.034;2024-03-23T01:22:18;101006.34;;;16.80;56.84
83815;BME280;73829;53.826;-3.034;2024-03-23T01:24:49;101001.46;;;16.78;56.99
83815;BME280;73829;53.826;-3.034;2024-03-23T01:27:33;100996.27;;;16.77;57.11
83815;BME280;73829;53.826;-3.034;2024-03-23T01:30:05;100997.88;;;16.75;56.87
83815;BME280;73829;53.826;-3.034;2024-03-23T01:32:35;100992.50;;;16.73;56.85
83815;BME280;73829;53.826;-3.034;2024-03-23T01:35:06;100991.14;;;16.71;56.97
83815;BME280;73829;53.826;-3.034;2024-03-23T01:37:37;100985.74;;;16.70;57.03
83815;BME280;73829;53.826;-3.034;2024-03-23T01:40:09;100985.83;;;16.67;57.06
83815;BME280;73829;53.826;-3.034;2024-03-23T01:42:42;100973.60;;;16.65;57.07
83815;BME280;73829;53.826;-3.034;2024-03-23T01:45:12;100978.91;;;16.64;56.96
83815;BME280;73829;53.826;-3.034;2024-03-23T01:47:43;100968.09;;;16.62;56.82
83815;BME280;73829;53.826;-3.034;2024-03-23T01:50:14;100976.02;;;16.61;56.92
83815;BME280;73829;53.826;-3.034;2024-03-23T01:52:45;100969.39;;;16.60;56.81
83815;BME280;73829;53.826;-3.034;2024-03-23T01:55:15;100963.11;;;16.59;56.88
83815;BME280;73829;53.826;-3.034;2024-03-23T01:57:46;100958.60;;;16.57;56.92
83815;BME280;73829;53.826;-3.034;2024-03-23T02:00:17;100961.10;;;16.56;56.80
83815;BME280;73829;53.826;-3.034;2024-03-23T02:02:48;100953.57;;;16.55;56.88
83815;BME280;73829;53.826;-3.034;2024-03-23T02:05:17;100958.55;;;16.53;56.96
83815;BME280;73829;53.826;-3.034;2024-03-23T02:07:49;100962.11;;;16.52;56.90
83815;BME280;73829;53.826;-3.034;2024-03-23T02:10:20;100958.14;;;16.50;57.03
83815;BME280;73829;53.826;-3.034;2024-03-23T02:12:50;100954.14;;;16.49;56.92
83815;BME280;73829;53.826;-3.034;2024-03-23T02:15:22;100954.88;;;16.48;56.96
83815;BME280;73829;53.826;-3.034;2024-03-23T02:17:52;100942.45;;;16.47;56.81
83815;BME280;73829;53.826;-3.034;2024-03-23T02:20:23;100939.68;;;16.45;56.77
83815;BME280;73829;53.826;-3.034;2024-03-23T02:22:54;100935.85;;;16.44;56.97
83815;BME280;73829;53.826;-3.034;2024-03-23T02:25:25;100938.17;;;16.43;56.96
83815;BME280;73829;53.826;-3.034;2024-03-23T02:27:55;100933.65;;;16.42;56.82
83815;BME280;73829;53.826;-3.034;2024-03-23T02:30:27;100926.48;;;16.41;56.72
83815;BME280;73829;53.826;-3.034;2024-03-23T02:32:58;100927.39;;;16.40;56.80
83815;BME280;73829;53.826;-3.034;2024-03-23T02:35:28;100921.45;;;16.39;56.66
83815;BME280;73829;53.826;-3.034;2024-03-23T02:37:59;100920.80;;;16.38;56.78
83815;BME280;73829;53.826;-3.034;2024-03-23T02:40:30;100917.52;;;16.37;56.58
83815;BME280;73829;53.826;-3.034;2024-03-23T02:43:00;100917.55;;;16.35;56.75
83815;BME280;73829;53.826;-3.034;2024-03-23T02:45:31;100921.96;;;16.34;56.77
83815;BME280;73829;53.826;-3.034;2024-03-23T02:48:02;100915.86;;;16.34;56.80
83815;BME280;73829;53.826;-3.034;2024-03-23T02:50:33;100917.46;;;16.33;56.68
83815;BME280;73829;53.826;-3.034;2024-03-23T02:53:04;100909.95;;;16.32;56.75
83815;BME280;73829;53.826;-3.034;2024-03-23T02:55:35;100908.06;;;16.31;56.75
83815;BME280;73829;53.826;-3.034;2024-03-23T02:58:06;100907.73;;;16.30;56.78
83815;BME280;73829;53.826;-3.034;2024-03-23T03:00:36;100904.79;;;16.29;56.67
83815;BME280;73829;53.826;-3.034;2024-03-23T03:03:07;100907.46;;;16.28;56.61
83815;BME280;73829;53.826;-3.034;2024-03-23T03:05:38;100912.92;;;16.27;56.56
83815;BME280;73829;53.826;-3.034;2024-03-23T03:08:08;100900.52;;;16.25;56.73
83815;BME280;73829;53.826;-3.034;2024-03-23T03:10:39;100894.03;;;16.25;56.46
83815;BME280;73829;53.826;-3.034;2024-03-23T03:13:09;100887.95;;;16.23;56.54
83815;BME280;73829;53.826;-3.034;2024-03-23T03:15:42;100886.21;;;16.23;56.57
83815;BME280;73829;53.826;-3.034;2024-03-23T03:18:13;100899.75;;;16.22;56.39
83815;BME280;73829;53.826;-3.034;2024-03-23T03:20:44;100895.75;;;16.20;56.54
83815;BME280;73829;53.826;-3.034;2024-03-23T03:23:14;100889.48;;;16.19;56.61
83815;BME280;73829;53.826;-3.034;2024-03-23T03:25:45;100881.59;;;16.19;56.41
83815;BME280;73829;53.826;-3.034;2024-03-23T03:28:15;100888.30;;;16.18;56.46
83815;BME280;73829;53.826;-3.034;2024-03-23T03:30:46;100887.62;;;16.17;56.42
83815;BME280;73829;53.826;-3.034;2024-03-23T03:33:16;100884.51;;;16.16;56.40
83815;BME280;73829;53.826;-3.034;2024-03-23T03:35:47;100878.73;;;16.15;56.35
83815;BME280;73829;53.826;-3.034;2024-03-23T03:38:18;100885.24;;;16.15;56.38
83815;BME280;73829;53.826;-3.034;2024-03-23T03:40:48;100883.90;;;16.13;56.39
83815;BME280;73829;53.826;-3.034;2024-03-23T03:43:18;100878.13;;;16.12;56.41
83815;BME280;73829;53.826;-3.034;2024-03-23T03:48:56;100870.00;;;16.09;56.36
83815;BME280;73829;53.826;-3.034;2024-03-23T03:51:27;100871.23;;;16.09;56.17
83815;BME280;73829;53.826;-3.034;2024-03-23T03:53:57;100864.41;;;16.08;56.22
83815;BME280;73829;53.826;-3.034;2024-03-23T03:56:28;100866.39;;;16.07;56.19
83815;BME280;73829;53.826;-3.034;2024-03-23T03:58:58;100867.30;;;16.06;56.27
83815;BME280;73829;53.826;-3.034;2024-03-23T04:01:28;100864.66;;;16.06;56.42
83815;BME280;73829;53.826;-3.034;2024-03-23T04:03:59;100862.59;;;16.05;56.15
83815;BME280;73829;53.826;-3.034;2024-03-23T04:06:29;100856.86;;;16.04;56.13
83815;BME280;73829;53.826;-3.034;2024-03-23T04:09:00;100852.33;;;16.03;56.19
83815;BME280;73829;53.826;-3.034;2024-03-23T04:11:31;100846.55;;;16.02;56.11
83815;BME280;73829;53.826;-3.034;2024-03-23T04:14:03;100849.38;;;16.01;56.32
83815;BME280;73829;53.826;-3.034;2024-03-23T04:16:35;100856.97;;;16.01;56.07
83815;BME280;73829;53.826;-3.034;2024-03-23T04:19:05;100832.06;;;16.00;56.11
83815;BME280;73829;53.826;-3.034;2024-03-23T04:25:16;100829.02;;;15.97;56.21
83815;BME280;73829;53.826;-3.034;2024-03-23T04:27:48;100827.27;;;15.96;56.15
83815;BME280;73829;53.826;-3.034;2024-03-23T04:30:19;100820.83;;;15.94;56.28
83815;BME280;73829;53.826;-3.034;2024-03-23T04:32:50;100823.30;;;15.94;56.22
83815;BME280;73829;53.826;-3.034;2024-03-23T04:35:20;100814.73;;;15.93;56.17
83815;BME280;73829;53.826;-3.034;2024-03-23T04:37:54;100803.37;;;15.92;56.11
83815;BME280;73829;53.826;-3.034;2024-03-23T04:40:24;100794.11;;;15.91;56.14
83815;BME280;73829;53.826;-3.034;2024-03-23T04:42:55;100792.52;;;15.91;55.96
83815;BME280;73829;53.826;-3.034;2024-03-23T04:45:25;100786.08;;;15.90;56.01
83815;BME280;73829;53.826;-3.034;2024-03-23T04:47:56;100784.36;;;15.89;55.98
83815;BME280;73829;53.826;-3.034;2024-03-23T04:50:26;100787.73;;;15.88;55.99
83815;BME280;73829;53.826;-3.034;2024-03-23T04:52:57;100781.80;;;15.87;55.87
83815;BME280;73829;53.826;-3.034;2024-03-23T04:55:27;100786.73;;;15.87;56.11
83815;BME280;73829;53.826;-3.034;2024-03-23T04:57:58;100789.38;;;15.86;55.97
83815;BME280;73829;53.826;-3.034;2024-03-23T05:00:28;100781.16;;;15.85;55.89
83815;BME280;73829;53.826;-3.034;2024-03-23T05:02:59;100779.61;;;15.84;55.96
83815;BME280;73829;53.826;-3.034;2024-03-23T05:05:29;100777.71;;;15.84;55.88
83815;BME280;73829;53.826;-3.034;2024-03-23T05:07:59;100774.76;;;15.83;55.92
83815;BME280;73829;53.826;-3.034;2024-03-23T05:10:30;100773.38;;;15.82;55.89
83815;BME280;73829;53.826;-3.034;2024-03-23T05:13:01;100769.55;;;15.81;55.92
83815;BME280;73829;53.826;-3.034;2024-03-23T05:15:32;100776.27;;;15.80;55.89
83815;BME280;73829;53.826;-3.034;2024-03-23T05:18:04;100772.59;;;15.79;55.79
83815;BME280;73829;53.826;-3.034;2024-03-23T05:20:35;100770.90;;;15.77;55.87
83815;BME280;73829;53.826;-3.034;2024-03-23T05:23:06;100767.05;;;15.77;55.66
83815;BME280;73829;53.826;-3.034;2024-03-23T05:25:36;100769.71;;;15.77;55.83
83815;BME280;73829;53.826;-3.034;2024-03-23T05:28:07;100769.02;;;15.76;55.80
83815;BME280;73829;53.826;-3.034;2024-03-23T05:30:37;100768.71;;;15.74;55.81
83815;BME280;73829;53.826;-3.034;2024-03-23T05:33:09;100775.06;;;15.73;55.81
83815;BME280;73829;53.826;-3.034;2024-03-23T05:35:39;100772.83;;;15.72;55.71
83815;BME280;73829;53.826;-3.034;2024-03-23T05:38:09;100767.04;;;15.71;55.68
83815;BME280;73829;53.826;-3.034;2024-03-23T05:40:41;100756.59;;;15.70;55.70
83815;BME280;73829;53.826;-3.034;2024-03-23T05:43:11;100755.73;;;15.70;55.57
83815;BME280;73829;53.826;-3.034;2024-03-23T05:45:42;100753.48;;;15.69;55.42
83815;BME280;73829;53.826;-3.034;2024-03-23T05:48:12;100750.02;;;15.68;55.60
83815;BME280;73829;53.826;-3.034;2024-03-23T05:50:43;100751.79;;;15.67;55.65
83815;BME280;73829;53.826;-3.034;2024-03-23T05:53:14;100745.32;;;15.66;55.63
83815;BME280;73829;53.826;-3.034;2024-03-23T05:55:44;100742.16;;;15.66;55.46
83815;BME280;73829;53.826;-3.034;2024-03-23T05:58:17;100752.34;;;15.65;55.48
83815;BME280;73829;53.826;-3.034;2024-03-23T06:00:49;100743.62;;;15.64;55.48
83815;BME280;73829;53.826;-3.034;2024-03-23T06:03:19;100747.32;;;15.63;55.68
83815;BME280;73829;53.826;-3.034;2024-03-23T06:09:37;100743.73;;;15.60;55.61
83815;BME280;73829;53.826;-3.034;2024-03-23T06:12:09;100745.52;;;15.59;55.49
83815;BME280;73829;53.826;-3.034;2024-03-23T06:14:38;100741.86;;;15.59;55.61
83815;BME280;73829;53.826;-3.034;2024-03-23T06:17:08;100743.33;;;15.57;55.67
83815;BME280;73829;53.826;-3.034;2024-03-23T06:19:39;100739.14;;;15.56;55.69
83815;BME280;73829;53.826;-3.034;2024-03-23T06:22:09;100745.67;;;15.55;55.60
83815;BME280;73829;53.826;-3.034;2024-03-23T06:24:40;100744.13;;;15.54;55.58
83815;BME280;73829;53.826;-3.034;2024-03-23T06:27:11;100742.75;;;15.53;55.49
83815;BME280;73829;53.826;-3.034;2024-03-23T06:29:40;100739.26;;;15.53;55.52
83815;BME280;73829;53.826;-3.034;2024-03-23T06:32:11;100740.02;;;15.51;55.55
83815;BME280;73829;53.826;-3.034;2024-03-23T06:34:43;100747.23;;;15.50;55.32
83815;BME280;73829;53.826;-3.034;2024-03-23T06:37:14;100741.13;;;15.49;55.45
83815;BME280;73829;53.826;-3.034;2024-03-23T06:39:47;100743.42;;;15.48;55.47
83815;BME280;73829;53.826;-3.034;2024-03-23T06:42:17;100740.83;;;15.48;55.41
83815;BME280;73829;53.826;-3.034;2024-03-23T06:44:48;100735.42;;;15.47;55.48
83815;BME280;73829;53.826;-3.034;2024-03-23T06:47:18;100734.58;;;15.46;55.46
83815;BME280;73829;53.826;-3.034;2024-03-23T06:49:48;100729.67;;;15.45;55.38
83815;BME280;73829;53.826;-3.034;2024-03-23T06:52:19;100730.59;;;15.44;55.49
83815;BME280;73829;53.826;-3.034;2024-03-23T06:54:49;100734.83;;;15.43;55.35
83815;BME280;73829;53.826;-3.034;2024-03-23T06:57:20;100737.13;;;15.43;55.41
83815;BME280;73829;53.826;-3.034;2024-03-23T06:59:50;100731.17;;;15.42;55.28
83815;BME280;73829;53.826;-3.034;2024-03-23T07:02:22;100734.89;;;15.42;55.34
83815;BME280;73829;53.826;-3.034;2024-03-23T07:04:53;100729.13;;;15.41;55.33
83815;BME280;73829;53.826;-3.034;2024-03-23T07:07:23;100725.30;;;15.40;55.30
83815;BME280;73829;53.826;-3.034;2024-03-23T07:09:54;100725.67;;;15.40;55.20
83815;BME280;73829;53.826;-3.034;2024-03-23T07:12:24;100724.46;;;15.39;55.23
83815;BME280;73829;53.826;-3.034;2024-03-23T07:14:55;100721.52;;;15.38;55.16
83815;BME280;73829;53.826;-3.034;2024-03-23T07:17:25;100729.96;;;15.37;55.09
83815;BME280;73829;53.826;-3.034;2024-03-23T07:19:56;100731.23;;;15.36;55.19
83815;BME280;73829;53.826;-3.034;2024-03-23T07:22:26;100721.45;;;15.35;54.99
83815;BME280;73829;53.826;-3.034;2024-03-23T07:24:56;100722.35;;;15.35;55.26
83815;BME280;73829;53.826;-3.034;2024-03-23T07:27:27;100715.53;;;15.34;55.19
83815;BME280;73829;53.826;-3.034;2024-03-23T07:29:57;100709.77;;;15.33;55.04
83815;BME280;73829;53.826;-3.034;2024-03-23T07:32:28;100708.02;;;15.33;55.07
83815;BME280;73829;53.826;-3.034;2024-03-23T07:38:39;100709.52;;;15.31;55.10
83815;BME280;73829;53.826;-3.034;2024-03-23T07:41:11;100708.30;;;15.30;54.96
83815;BME280;73829;53.826;-3.034;2024-03-23T07:43:42;100704.46;;;15.29;55.03
83815;BME280;73829;53.826;-3.034;2024-03-23T07:46:13;100705.73;;;15.28;54.84
83815;BME280;73829;53.826;-3.034;2024-03-23T07:48:42;100706.98;;;15.27;54.98
83815;BME280;73829;53.826;-3.034;2024-03-23T07:51:15;100707.02;;;15.26;54.98
83815;BME280;73829;53.826;-3.034;2024-03-23T07:53:46;100704.08;;;15.25;54.91
83815;BME280;73829;53.826;-3.034;2024-03-23T07:56:17;100700.98;;;15.23;54.88
83815;BME280;73829;53.826;-3.034;2024-03-23T07:58:49;100702.56;;;15.23;54.94
83815;BME280;73829;53.826;-3.034;2024-03-23T08:01:19;100705.38;;;15.22;54.97
83815;BME280;73829;53.826;-3.034;2024-03-23T08:03:51;100699.28;;;15.21;54.85
83815;BME280;73829;53.826;-3.034;2024-03-23T08:06:22;100699.84;;;15.21;54.98
83815;BME280;73829;53.826;-3.034;2024-03-23T08:08:54;100694.09;;;15.20;54.78
83815;BME280;73829;53.826;-3.034;2024-03-23T08:11:30;100697.41;;;15.19;54.92
83815;BME280;73829;53.826;-3.034;2024-03-23T08:14:00;100692.00;;;15.19;54.84
83815;BME280;73829;53.826;-3.034;2024-03-23T08:16:31;100693.78;;;15.18;54.78
83815;BME280;73829;53.826;-3.034;2024-03-23T08:19:03;100702.05;;;15.18;54.64
83815;BME280;73829;53.826;-3.034;2024-03-23T08:21:34;100695.58;;;15.17;54.62
83815;BME280;73829;53.826;-3.034;2024-03-23T08:24:05;100704.17;;;15.16;54.76
83815;BME280;73829;53.826;-3.034;2024-03-23T08:26:36;100705.95;;;15.15;54.76
83815;BME280;73829;53.826;-3.034;2024-03-23T08:29:07;100708.97;;;15.15;54.76
83815;BME280;73829;53.826;-3.034;2024-03-23T08:31:37;100717.95;;;15.14;54.65
83815;BME280;73829;53.826;-3.034;2024-03-23T08:34:08;100716.55;;;15.14;54.57
83815;BME280;73829;53.826;-3.034;2024-03-23T08:36:38;100709.05;;;15.13;54.64
83815;BME280;73829;53.826;-3.034;2024-03-23T08:39:09;100705.05;;;15.12;54.37
83815;BME280;73829;53.826;-3.034;2024-03-23T08:48:46;100700.53;;;15.11;54.71
83815;BME280;73829;53.826;-3.034;2024-03-23T08:51:18;100699.82;;;15.11;54.64
83815;BME280;73829;53.826;-3.034;2024-03-23T08:53:47;100700.17;;;15.11;54.91
83815;BME280;73829;53.826;-3.034;2024-03-23T08:56:17;100697.73;;;15.10;54.85
83815;BME280;73829;53.826;-3.034;2024-03-23T08:58:49;100695.29;;;15.10;54.98
83815;BME280;73829;53.826;-3.034;2024-03-23T09:01:19;100697.55;;;15.11;54.85
83815;BME280;73829;53.826;-3.034;2024-03-23T09:03:49;100709.98;;;15.11;54.86
83815;BME280;73829;53.826;-3.034;2024-03-23T09:06:21;100703.66;;;15.11;54.81
83815;BME280;73829;53.826;-3.034;2024-03-23T09:08:51;100701.36;;;15.12;55.00
83815;BME280;73829;53.826;-3.034;2024-03-23T09:11:22;100703.63;;;15.12;54.84
83815;BME280;73829;53.826;-3.034;2024-03-23T09:13:52;100703.80;;;15.12;54.89
83815;BME280;73829;53.826;-3.034;2024-03-23T09:16:23;100701.85;;;15.12;54.78
83815;BME280;73829;53.826;-3.034;2024-03-23T09:18:53;100698.86;;;15.13;54.97
83815;BME280;73829;53.826;-3.034;2024-03-23T09:21:24;100699.21;;;15.13;54.95
83815;BME280;73829;53.826;-3.034;2024-03-23T09:23:54;100704.63;;;15.14;55.03
83815;BME280;73829;53.826;-3.034;2024-03-23T09:26:24;100692.36;;;15.14;55.03
83815;BME280;73829;53.826;-3.034;2024-03-23T09:28:55;100695.48;;;15.15;54.92
83815;BME280;73829;53.826;-3.034;2024-03-23T09:31:25;100695.63;;;15.15;54.96
83815;BME280;73829;53.826;-3.034;2024-03-23T09:33:56;100688.59;;;15.16;55.00
83815;BME280;73829;53.826;-3.034;2024-03-23T09:51:09;100696.86;;;15.15;55.05
83815;BME280;73829;53.826;-3.034;2024-03-23T09:53:40;100697.04;;;15.15;55.16
83815;BME280;73829;53.826;-3.034;2024-03-23T09:56:10;100690.00;;;15.16;55.26
83815;BME280;73829;53.826;-3.034;2024-03-23T09:58:41;100694.54;;;15.16;55.64
83815;BME280;73829;53.826;-3.034;2024-03-23T10:01:12;100698.73;;;15.17;55.60
83815;BME280;73829;53.826;-3.034;2024-03-23T10:03:46;100690.13;;;15.18;55.51
83815;BME280;73829;53.826;-3.034;2024-03-23T10:06:22;100698.16;;;15.18;55.62
83815;BME280;73829;53.826;-3.034;2024-03-23T10:08:54;100695.15;;;15.19;55.60
83815;BME280;73829;53.826;-3.034;2024-03-23T10:11:24;100694.79;;;15.19;55.79
83815;BME280;73829;53.826;-3.034;2024-03-23T10:13:56;100700.55;;;15.20;55.69
83815;BME280;73829;53.826;-3.034;2024-03-23T10:16:26;100701.58;;;15.21;55.74
83815;BME280;73829;53.826;-3.034;2024-03-23T10:18:57;100695.61;;;15.21;55.82
83815;BME280;73829;53.826;-3.034;2024-03-23T10:21:27;100696.98;;;15.22;55.71
83815;BME280;73829;53.826;-3.034;2024-03-23T10:38:42;100701.44;;;15.25;55.87
83815;BME280;73829;53.826;-3.034;2024-03-23T10:41:12;100699.82;;;15.27;55.75
83815;BME280;73829;53.826;-3.034;2024-03-23T10:43:44;100700.64;;;15.28;55.90
83815;BME280;73829;53.826;-3.034;2024-03-23T10:46:15;100699.72;;;15.29;56.16
83815;BME280;73829;53.826;-3.034;2024-03-23T10:48:46;100697.75;;;15.31;56.13
83815;BME280;73829;53.826;-3.034;2024-03-23T10:51:16;100700.49;;;15.33;56.33
83815;BME280;73829;53.826;-3.034;2024-03-23T10:53:48;100706.75;;;15.35;56.44
83815;BME280;73829;53.826;-3.034;2024-03-23T10:56:20;100707.54;;;15.37;56.45
83815;BME280;73829;53.826;-3.034;2024-03-23T10:58:52;100698.34;;;15.39;56.40
83815;BME280;73829;53.826;-3.034;2024-03-23T11:01:23;100700.04;;;15.41;56.46
83815;BME280;73829;53.826;-3.034;2024-03-23T11:03:54;100703.13;;;15.43;56.71
83815;BME280;73829;53.826;-3.034;2024-03-23T11:06:44;100700.77;;;15.45;56.50
83815;BME280;73829;53.826;-3.034;2024-03-23T11:09:40;100708.43;;;15.47;56.53
83815;BME280;73829;53.826;-3.034;2024-03-23T11:12:34;100704.69;;;15.48;56.37
83815;BME280;73829;53.826;-3.034;2024-03-23T11:15:06;100708.84;;;15.50;56.35
83815;BME280;73829;53.826;-3.034;2024-03-23T11:17:41;100702.13;;;15.51;56.25
83815;BME280;73829;53.826;-3.034;2024-03-23T11:20:12;100694.72;;;15.53;56.35
83815;BME280;73829;53.826;-3.034;2024-03-23T11:22:46;100684.69;;;15.54;56.31
83815;BME280;73829;53.826;-3.034;2024-03-23T11:25:19;100688.17;;;15.55;56.24
83815;BME280;73829;53.826;-3.034;2024-03-23T11:27:52;100686.59;;;15.55;56.04
83815;BME280;73829;53.826;-3.034;2024-03-23T11:30:24;100693.05;;;15.55;56.07
83815;BME280;73829;53.826;-3.034;2024-03-23T11:32:57;100704.47;;;15.55;56.01
83815;BME280;73829;53.826;-3.034;2024-03-23T11:35:31;100707.41;;;15.56;55.94
83815;BME280;73829;53.826;-3.034;2024-03-23T11:38:06;100709.71;;;15.55;55.80
83815;BME280;73829;53.826;-3.034;2024-03-23T11:40:38;100709.73;;;15.55;55.99
83815;BME280;73829;53.826;-3.034;2024-03-23T11:43:12;100707.27;;;15.55;55.98
83815;BME280;73829;53.826;-3.034;2024-03-23T11:53:18;100708.57;;;15.54;55.84
83815;BME280;73829;53.826;-3.034;2024-03-23T11:55:50;100703.31;;;15.53;55.80
83815;BME280;73829;53.826;-3.034;2024-03-23T11:58:22;100701.91;;;15.53;55.65
83815;BME280;73829;53.826;-3.034;2024-03-23T12:00:54;100700.69;;;15.53;55.65
83815;BME280;73829;53.826;-3.034;2024-03-23T12:03:26;100709.46;;;15.53;55.87
83815;BME280;73829;53.826;-3.034;2024-03-23T12:06:00;100715.41;;;15.53;55.76
83815;BME280;73829;53.826;-3.034;2024-03-23T12:08:32;100706.13;;;15.53;55.86
83815;BME280;73829;53.826;-3.034;2024-03-23T12:11:08;100690.34;;;15.53;55.71
83815;BME280;73829;53.826;-3.034;2024-03-23T12:13:41;100692.61;;;15.53;55.72
83815;BME280;73829;53.826;-3.034;2024-03-23T12:16:14;100691.05;;;15.53;55.89
83815;BME280;73829;53.826;-3.034;2024-03-23T12:18:46;100693.48;;;15.53;55.84
83815;BME280;73829;53.826;-3.034;2024-03-23T12:21:16;100687.00;;;15.54;55.62
83815;BME280;73829;53.826;-3.034;2024-03-23T12:23:46;100691.02;;;15.54;55.78
83815;BME280;73829;53.826;-3.034;2024-03-23T12:26:17;100683.31;;;15.53;55.93
83815;BME280;73829;53.826;-3.034;2024-03-23T12:28:49;100677.69;;;15.54;55.94
83815;BME280;73829;53.826;-3.034;2024-03-23T12:31:20;100679.26;;;15.54;55.97
83815;BME280;73829;53.826;-3.034;2024-03-23T12:40:36;100676.27;;;15.54;55.70
83815;BME280;73829;53.826;-3.034;2024-03-23T12:43:07;100682.26;;;15.54;55.72
83815;BME280;73829;53.826;-3.034;2024-03-23T12:45:37;100676.47;;;15.54;55.65
83815;BME280;73829;53.826;-3.034;2024-03-23T12:48:09;100678.41;;;15.53;55.75
83815;BME280;73829;53.826;-3.034;2024-03-23T12:50:39;100679.63;;;15.54;55.54
83815;BME280;73829;53.826;-3.034;2024-03-23T12:53:10;100675.59;;;15.54;55.53
83815;BME280;73829;53.826;-3.034;2024-03-23T12:55:40;100682.75;;;15.54;55.56
83815;BME280;73829;53.826;-3.034;2024-03-23T12:58:11;100682.77;;;15.54;55.50
83815;BME280;73829;53.826;-3.034;2024-03-23T13:00:41;100681.35;;;15.54;55.66
83815;BME280;73829;53.826;-3.034;2024-03-23T13:03:15;100681.34;;;15.54;55.67
83815;BME280;73829;53.826;-3.034;2024-03-23T13:05:52;100674.67;;;15.55;55.76
83815;BME280;73829;53.826;-3.034;2024-03-23T13:08:24;100678.16;;;15.55;55.70
83815;BME280;73829;53.826;-3.034;2024-03-23T13:10:54;100674.61;;;15.56;55.73
83815;BME280;73829;53.826;-3.034;2024-03-23T13:13:25;100676.89;;;15.56;55.80
83815;BME280;73829;53.826;-3.034;2024-03-23T13:27:10;100667.16;;;15.58;56.17
83815;BME280;73829;53.826;-3.034;2024-03-23T13:29:41;100660.85;;;15.59;56.31
83815;BME280;73829;53.826;-3.034;2024-03-23T13:32:13;100661.52;;;15.59;56.41
83815;BME280;73829;53.826;-3.034;2024-03-23T13:34:43;100659.25;;;15.60;56.68
83815;BME280;73829;53.826;-3.034;2024-03-23T13:37:14;100650.58;;;15.61;56.69
83815;BME280;73829;53.826;-3.034;2024-03-23T13:39:44;100652.02;;;15.66;56.77
83815;BME280;73829;53.826;-3.034;2024-03-23T13:42:15;100648.14;;;15.72;56.65
83815;BME280;73829;53.826;-3.034;2024-03-23T13:44:45;100645.77;;;15.79;56.81
83815;BME280;73829;53.826;-3.034;2024-03-23T13:47:16;100643.27;;;15.86;56.85
83815;BME280;73829;53.826;-3.034;2024-03-23T13:49:47;100641.66;;;15.90;56.83
83815;BME280;73829;53.826;-3.034;2024-03-23T13:52:18;100634.30;;;15.95;56.84
83815;BME280;73829;53.826;-3.034;2024-03-23T13:54:52;100628.35;;;16.00;56.81
83815;BME280;73829;53.826;-3.034;2024-03-23T13:57:22;100625.05;;;16.03;56.84
83815;BME280;73829;53.826;-3.034;2024-03-23T14:10:57;100593.98;;;16.13;56.84
83815;BME280;73829;53.826;-3.034;2024-03-23T14:13:28;100597.27;;;16.14;56.96
83815;BME280;73829;53.826;-3.034;2024-03-23T14:16:00;100598.99;;;16.15;56.98
83815;BME280;73829;53.826;-3.034;2024-03-23T14:18:30;100607.38;;;16.15;56.89
83815;BME280;73829;53.826;-3.034;2024-03-23T14:21:01;100608.77;;;16.16;56.98
83815;BME280;73829;53.826;-3.034;2024-03-23T14:23:32;100604.70;;;16.16;56.92
83815;BME280;73829;53.826;-3.034;2024-03-23T14:26:04;100606.27;;;16.17;56.92
83815;BME280;73829;53.826;-3.034;2024-03-23T14:28:36;100602.59;;;16.17;56.78
83815;BME280;73829;53.826;-3.034;2024-03-23T14:31:06;100606.09;;;16.17;56.72
83815;BME280;73829;53.826;-3.034;2024-03-23T14:33:39;100601.35;;;16.17;56.74
83815;BME280;73829;53.826;-3.034;2024-03-23T14:36:15;100610.14;;;16.17;56.74
83815;BME280;73829;53.826;-3.034;2024-03-23T14:38:49;100617.50;;;16.17;56.86
83815;BME280;73829;53.826;-3.034;2024-03-23T14:41:21;100608.05;;;16.16;56.88
83815;BME280;73829;53.826;-3.034;2024-03-23T14:43:51;100608.23;;;16.16;56.81
83815;BME280;73829;53.826;-3.034;2024-03-23T14:46:23;100611.04;;;16.16;56.99
83815;BME280;73829;53.826;-3.034;2024-03-23T14:48:54;100611.05;;;16.16;57.04
83815;BME280;73829;53.826;-3.034;2024-03-23T14:51:24;100606.50;;;16.16;57.07
83815;BME280;73829;53.826;-3.034;2024-03-23T14:53:56;100610.55;;;16.15;57.01
83815;BME280;73829;53.826;-3.034;2024-03-23T15:03:48;100604.45;;;16.14;57.05
83815;BME280;73829;53.826;-3.034;2024-03-23T15:06:22;100605.19;;;16.14;57.06
83815;BME280;73829;53.826;-3.034;2024-03-23T15:08:53;100600.96;;;16.13;57.16
83815;BME280;73829;53.826;-3.034;2024-03-23T15:11:24;100602.71;;;16.14;57.21
83815;BME280;73829;53.826;-3.034;2024-03-23T15:13:55;100600.30;;;16.17;57.09
83815;BME280;73829;53.826;-3.034;2024-03-23T15:16:25;100604.90;;;16.20;57.11
83815;BME280;73829;53.826;-3.034;2024-03-23T15:18:56;100602.27;;;16.25;57.15
83815;BME280;73829;53.826;-3.034;2024-03-23T15:21:26;100600.57;;;16.28;57.07
83815;BME280;73829;53.826;-3.034;2024-03-23T15:23:56;100595.92;;;16.31;56.98
83815;BME280;73829;53.826;-3.034;2024-03-23T15:26:28;100601.45;;;16.33;57.01